createdAt,value
2019-02-06T00:02:35.577Z,17.60
2019-02-06T00:05:16.189Z,18.17
2019-02-06T00:07:57.912Z,18.97
2019-02-06T00:10:40.540Z,19.20
2019-02-06T00:13:21.105Z,20.23
2019-02-06T00:16:03.774Z,19.60
2019-02-06T00:18:44.355Z,18.53
2019-02-06T00:21:25.362Z,17.43
2019-02-06T00:24:07.144Z,17.13
2019-02-06T00:26:50.283Z,16.90
2019-02-06T00:29:31.286Z,16.40
2019-02-06T00:32:12.138Z,17.43
2019-02-06T00:34:52.839Z,18.17
2019-02-06T00:37:33.500Z,17.97
2019-02-06T00:40:16.398Z,17.53
2019-02-06T00:42:57.117Z,17.97
2019-02-06T00:45:38.009Z,19.67
2019-02-06T00:48:18.990Z,18.23
2019-02-06T00:50:59.816Z,17.33
2019-02-06T00:53:40.513Z,19.10
2019-02-06T00:56:21.377Z,17.80
2019-02-06T00:59:02.144Z,18.90
2019-02-06T01:01:42.875Z,18.13
2019-02-06T01:04:23.647Z,18.63
2019-02-06T01:07:05.042Z,17.80
2019-02-06T01:09:45.761Z,17.73
2019-02-06T01:12:26.615Z,18.57
2019-02-06T01:15:07.433Z,18.47
2019-02-06T01:17:47.975Z,18.30
2019-02-06T01:20:29.336Z,18.00
2019-02-06T01:23:11.078Z,17.40
2019-02-06T01:25:51.628Z,18.43
2019-02-06T01:28:32.442Z,16.97
2019-02-06T01:31:13.960Z,17.60
2019-02-06T01:33:55.727Z,17.07
2019-02-06T01:36:36.553Z,17.53
2019-02-06T01:39:17.399Z,16.33
2019-02-06T01:41:58.211Z,17.00
2019-02-06T01:44:39.658Z,16.77
2019-02-06T01:47:20.796Z,16.63
2019-02-06T01:50:01.532Z,17.00
2019-02-06T01:52:42.157Z,17.23
2019-02-06T01:55:24.438Z,17.33
2019-02-06T01:57:52.876Z,16.73
2019-02-06T02:00:40.794Z,17.50
2019-02-06T02:03:29.119Z,17.47
2019-02-06T02:06:16.894Z,16.90
2019-02-06T02:12:20.631Z,16.57
2019-02-06T02:15:03.155Z,15.73
2019-02-06T02:17:43.869Z,15.83
2019-02-06T02:20:26.485Z,15.57
2019-02-06T02:23:08.985Z,15.50
2019-02-06T02:25:49.949Z,14.80
2019-02-06T02:28:30.679Z,14.67
2019-02-06T02:31:12.453Z,14.13
2019-02-06T02:33:53.440Z,12.50
2019-02-06T02:36:34.674Z,12.60
2019-02-06T02:39:15.846Z,12.40
2019-02-06T02:41:57.196Z,11.83
2019-02-06T02:44:38.641Z,10.90
2019-02-06T02:47:07.063Z,11.37
2019-02-06T02:49:54.869Z,10.53
2019-02-06T02:52:44.348Z,10.57
2019-02-06T02:55:52.983Z,10.37
2019-02-06T02:58:40.739Z,9.43
2019-02-06T03:01:48.152Z,9.63
2019-02-06T03:04:36.494Z,10.47
2019-02-06T03:07:43.742Z,10.80
2019-02-06T03:10:32.095Z,9.77
2019-02-06T03:13:21.621Z,10.40
2019-02-06T03:16:09.383Z,10.47
2019-02-06T03:18:57.714Z,10.53
2019-02-06T03:25:25.317Z,10.70
2019-02-06T03:28:13.076Z,10.67
2019-02-06T03:31:00.865Z,10.20
2019-02-06T03:34:09.347Z,9.97
2019-02-06T03:36:57.133Z,10.37
2019-02-06T03:39:45.130Z,11.00
2019-02-06T03:42:32.910Z,10.80
2019-02-06T03:45:20.678Z,9.73
2019-02-06T03:48:08.484Z,10.77
2019-02-06T03:50:57.380Z,10.23
2019-02-06T03:53:45.193Z,10.40
2019-02-06T03:56:33.038Z,11.47
2019-02-06T03:59:20.798Z,10.47
2019-02-06T04:02:08.577Z,11.80
2019-02-06T04:04:56.347Z,11.40
2019-02-06T04:07:44.189Z,11.27
2019-02-06T04:10:32.150Z,11.30
2019-02-06T04:13:40.329Z,12.77
2019-02-06T04:16:22.623Z,11.13
2019-02-06T04:19:03.031Z,11.93
2019-02-06T04:21:44.952Z,10.80
2019-02-06T04:24:27.099Z,11.50
2019-02-06T04:27:07.366Z,10.83
2019-02-06T04:29:48.855Z,11.40
2019-02-06T04:32:29.295Z,11.83
2019-02-06T04:35:10.275Z,12.80
2019-02-06T04:37:51.523Z,13.37
2019-02-06T04:40:31.678Z,13.23
2019-02-06T04:43:13.947Z,14.57
2019-02-06T04:45:55.163Z,14.67
2019-02-06T04:48:35.655Z,15.47
2019-02-06T04:51:17.598Z,15.90
2019-02-06T04:53:58.446Z,16.47
2019-02-06T04:56:39.994Z,15.73
2019-02-06T04:59:22.476Z,16.60
2019-02-06T05:02:04.996Z,16.13
2019-02-06T05:04:46.153Z,17.30
2019-02-06T05:07:26.511Z,16.00
2019-02-06T05:10:08.132Z,15.53
2019-02-06T05:12:50.664Z,17.20
2019-02-06T05:15:33.202Z,16.50
2019-02-06T05:18:15.098Z,16.67
2019-02-06T05:20:56.433Z,17.80
2019-02-06T05:23:37.042Z,17.17
2019-02-06T05:26:17.358Z,16.77
2019-02-06T05:28:59.471Z,18.37
2019-02-06T05:31:39.603Z,18.67
2019-02-06T05:34:20.075Z,18.47
2019-02-06T05:37:02.586Z,18.60
2019-02-06T05:39:45.259Z,18.43
2019-02-06T05:42:26.381Z,18.37
2019-02-06T05:45:07.102Z,18.03
2019-02-06T05:47:48.760Z,17.57
2019-02-06T05:50:30.229Z,18.67
2019-02-06T05:53:11.442Z,17.73
2019-02-06T05:55:53.377Z,18.23
2019-02-06T05:58:35.378Z,16.97
2019-02-06T06:01:17.704Z,17.97
2019-02-06T06:03:58.481Z,17.77
2019-02-06T06:06:40.664Z,18.23
2019-02-06T06:12:19.450Z,18.83
2019-02-06T06:15:00.746Z,20.07
2019-02-06T06:17:41.237Z,19.67
2019-02-06T06:20:22.230Z,22.73
2019-02-06T06:22:50.751Z,23.40
2019-02-06T06:25:38.535Z,22.33
2019-02-06T06:28:26.904Z,23.47
2019-02-06T06:31:15.042Z,23.50
2019-02-06T06:40:37.389Z,24.60
2019-02-06T06:43:25.168Z,24.10
2019-02-06T06:46:13.008Z,24.80
2019-02-06T06:49:00.780Z,24.30
2019-02-06T06:51:48.539Z,25.13
2019-02-06T06:54:36.527Z,24.17
2019-02-06T06:57:24.354Z,24.07
2019-02-06T07:00:31.466Z,25.03
2019-02-06T07:03:19.244Z,25.57
2019-02-06T07:06:08.756Z,25.77
2019-02-06T07:08:57.330Z,24.10
2019-02-06T07:11:45.204Z,23.80
2019-02-06T07:14:26.165Z,24.90
2019-02-06T07:17:06.854Z,25.13
2019-02-06T07:19:47.541Z,23.83
2019-02-06T07:22:28.554Z,24.73
2019-02-06T07:25:09.616Z,24.53
2019-02-06T07:27:50.963Z,25.07
2019-02-06T07:30:31.708Z,24.57
2019-02-06T07:33:12.424Z,24.83
2019-02-06T07:35:53.194Z,27.00
2019-02-06T07:38:33.685Z,25.87
2019-02-06T07:41:14.622Z,26.07
2019-02-06T07:43:55.317Z,24.30
2019-02-06T07:46:36.207Z,23.83
2019-02-06T07:49:17.956Z,25.00
2019-02-06T07:51:58.900Z,26.70
2019-02-06T07:54:41.453Z,25.93
2019-02-06T07:57:23.318Z,25.73
2019-02-06T08:00:04.156Z,25.40
2019-02-06T08:02:44.776Z,27.17
2019-02-06T08:05:25.427Z,28.23
2019-02-06T08:10:50.182Z,26.77
2019-02-06T08:13:32.358Z,27.53
2019-02-06T08:16:13.696Z,28.60
2019-02-06T08:18:54.527Z,29.10
2019-02-06T08:21:38.324Z,28.43
2019-02-06T08:24:18.624Z,28.80
2019-02-06T08:26:58.975Z,28.47
2019-02-06T08:29:39.561Z,29.47
2019-02-06T08:32:21.314Z,27.67
2019-02-06T08:35:03.344Z,29.47
2019-02-06T08:37:43.823Z,26.83
2019-02-06T08:40:24.161Z,25.90
2019-02-06T08:43:05.029Z,26.70
2019-02-06T08:45:45.366Z,26.53
2019-02-06T08:51:09.666Z,27.50
2019-02-06T08:53:50.353Z,24.90
2019-02-06T08:56:31.291Z,26.73
2019-02-06T08:59:12.071Z,26.63
2019-02-06T09:01:52.772Z,27.40
2019-02-06T09:04:34.169Z,27.67
2019-02-06T09:07:16.457Z,27.37
2019-02-06T09:09:56.762Z,27.20
2019-02-06T09:12:37.548Z,27.10
2019-02-06T09:15:18.458Z,28.63
2019-02-06T09:17:59.211Z,28.17
2019-02-06T09:20:39.879Z,28.13
2019-02-06T09:23:21.018Z,27.80
2019-02-06T09:26:01.278Z,28.67
2019-02-06T09:28:42.181Z,27.33
2019-02-06T09:31:22.725Z,29.07
2019-02-06T09:34:03.158Z,28.33
2019-02-06T09:36:43.975Z,28.73
2019-02-06T09:39:24.561Z,25.33
2019-02-06T09:42:08.496Z,27.90
2019-02-06T09:44:49.696Z,26.27
2019-02-06T09:47:30.887Z,27.03
2019-02-06T09:50:12.957Z,27.17
2019-02-06T09:52:53.580Z,26.60
2019-02-06T09:55:34.012Z,26.53
2019-02-06T09:58:14.868Z,27.27
2019-02-06T10:00:55.696Z,27.33
2019-02-06T10:03:35.922Z,26.93
2019-02-06T10:06:16.867Z,26.13
2019-02-06T10:08:57.619Z,27.23
2019-02-06T10:11:39.420Z,26.50
2019-02-06T10:14:21.224Z,25.70
2019-02-06T10:17:01.873Z,27.23
2019-02-06T10:19:42.806Z,26.67
2019-02-06T10:22:23.667Z,28.50
2019-02-06T10:25:04.550Z,26.50
2019-02-06T10:30:36.508Z,27.90
2019-02-06T10:33:18.925Z,26.80
2019-02-06T10:35:59.846Z,26.50
2019-02-06T10:38:41.893Z,27.13
2019-02-06T10:41:22.794Z,27.27
2019-02-06T10:44:03.513Z,28.30
2019-02-06T10:46:45.075Z,27.97
2019-02-06T10:49:25.352Z,28.70
2019-02-06T10:52:07.895Z,27.10
2019-02-06T10:54:48.736Z,28.07
2019-02-06T10:57:29.257Z,27.37
2019-02-06T11:00:09.864Z,26.93
2019-02-06T11:02:50.886Z,27.30
2019-02-06T11:05:31.501Z,26.90
2019-02-06T11:08:11.987Z,26.70
2019-02-06T11:10:52.913Z,27.37
2019-02-06T11:13:33.672Z,27.17
2019-02-06T11:16:14.223Z,28.13
2019-02-06T11:18:55.177Z,27.37
2019-02-06T11:21:36.165Z,26.63
2019-02-06T11:24:16.857Z,25.77
2019-02-06T11:26:57.431Z,25.47
2019-02-06T11:29:38.216Z,23.90
2019-02-06T11:32:19.148Z,24.53
2019-02-06T11:35:02.295Z,25.60
2019-02-06T11:37:42.007Z,25.63
2019-02-06T11:40:22.783Z,25.93
2019-02-06T11:43:03.363Z,24.47
2019-02-06T11:45:44.135Z,24.43
2019-02-06T11:48:25.582Z,26.17
2019-02-06T11:51:05.837Z,26.90
2019-02-06T11:53:46.568Z,25.57
2019-02-06T11:56:27.573Z,25.67
2019-02-06T11:59:07.921Z,25.87
2019-02-06T12:01:49.223Z,26.83
2019-02-06T12:04:30.023Z,24.97
2019-02-06T12:07:10.622Z,24.10
2019-02-06T12:09:52.079Z,27.43
2019-02-06T12:12:34.119Z,25.73
2019-02-06T12:15:15.254Z,25.50
2019-02-06T12:17:57.866Z,25.10
2019-02-06T12:20:38.570Z,23.63
2019-02-06T12:23:19.165Z,24.93
2019-02-06T12:26:01.562Z,24.90
2019-02-06T12:28:41.967Z,24.80
2019-02-06T12:31:22.280Z,24.47
2019-02-06T12:34:02.964Z,24.13
2019-02-06T12:36:44.526Z,25.27
2019-02-06T12:39:25.332Z,25.73
2019-02-06T12:42:06.019Z,23.73
2019-02-06T12:44:48.057Z,24.00
2019-02-06T12:47:29.907Z,24.40
2019-02-06T12:50:10.618Z,24.43
2019-02-06T12:52:51.402Z,24.03
2019-02-06T12:55:32.189Z,25.10
2019-02-06T12:58:12.736Z,24.90
2019-02-06T13:00:53.260Z,22.87
2019-02-06T13:03:34.052Z,22.80
2019-02-06T13:06:14.560Z,23.77
2019-02-06T13:08:55.050Z,23.77
2019-02-06T13:11:36.296Z,23.23
2019-02-06T13:14:19.107Z,24.73
2019-02-06T13:17:00.620Z,23.37
2019-02-06T13:19:45.301Z,22.90
2019-02-06T13:22:26.392Z,22.30
2019-02-06T13:25:07.166Z,23.60
2019-02-06T13:27:49.546Z,22.57
2019-02-06T13:30:31.019Z,22.53
2019-02-06T13:33:12.017Z,22.07
2019-02-06T13:35:53.607Z,22.10
2019-02-06T13:38:34.534Z,21.10
2019-02-06T13:41:14.935Z,22.60
2019-02-06T13:43:55.599Z,21.30
2019-02-06T13:46:37.276Z,20.37
2019-02-06T13:49:17.900Z,19.97
2019-02-06T13:51:58.219Z,21.37
2019-02-06T13:54:39.141Z,21.47
2019-02-06T13:57:20.146Z,20.40
2019-02-06T14:00:01.081Z,21.90
2019-02-06T14:02:43.416Z,21.17
2019-02-06T14:05:25.117Z,22.20
2019-02-06T14:08:07.255Z,20.53
2019-02-06T14:10:59.935Z,22.03
2019-02-06T14:13:32.190Z,20.47
2019-02-06T14:16:14.074Z,22.13
2019-02-06T14:18:57.111Z,22.53
2019-02-06T14:21:38.138Z,20.90
2019-02-06T14:24:20.246Z,20.60
2019-02-06T14:27:01.315Z,22.83
2019-02-06T14:29:41.591Z,22.13
2019-02-06T14:32:22.059Z,21.50
2019-02-06T14:37:46.976Z,21.00
2019-02-06T14:43:17.394Z,19.77
2019-02-06T14:46:02.070Z,20.67
2019-02-06T14:48:44.004Z,20.67
2019-02-06T14:51:25.947Z,21.17
2019-02-06T14:54:07.135Z,21.13
2019-02-06T14:56:48.579Z,19.77
2019-02-06T15:02:14.981Z,19.37
2019-02-06T15:04:56.434Z,26.43
2019-02-06T15:07:37.349Z,31.93
2019-02-06T15:10:18.308Z,41.43
2019-02-06T15:13:01.137Z,38.20
2019-02-06T15:15:40.851Z,30.57
2019-02-06T15:18:21.606Z,56.57
2019-02-06T15:21:03.566Z,23.27
2019-02-06T15:23:44.935Z,19.53
2019-02-06T15:26:28.693Z,31.07
2019-02-06T15:29:09.357Z,20.87
2019-02-06T15:31:51.011Z,24.57
2019-02-06T15:34:32.163Z,23.70
2019-02-06T15:37:13.043Z,24.10
2019-02-06T15:39:54.502Z,22.73
2019-02-06T15:42:39.352Z,22.27
2019-02-06T15:48:06.106Z,22.93
2019-02-06T15:50:47.081Z,20.03
2019-02-06T15:53:29.516Z,20.10
2019-02-06T15:56:10.184Z,20.37
2019-02-06T15:58:52.404Z,21.00
2019-02-06T16:01:34.310Z,20.73
2019-02-06T16:04:37.206Z,21.13
2019-02-06T16:07:18.004Z,22.47
2019-02-06T16:09:59.234Z,23.67
2019-02-06T16:12:43.061Z,22.67
2019-02-06T16:15:24.541Z,23.77
2019-02-06T16:18:32.617Z,22.27
2019-02-06T16:21:39.708Z,24.83
2019-02-06T16:24:46.841Z,25.13
2019-02-06T16:27:54.182Z,26.70
2019-02-06T16:31:02.455Z,25.37
2019-02-06T16:37:30.405Z,28.30
2019-02-06T16:40:39.159Z,29.93
2019-02-06T16:43:46.323Z,29.97
2019-02-06T16:49:59.212Z,27.00
2019-02-06T16:52:54.779Z,100.87
2019-02-06T16:56:03.655Z,53.80
2019-02-06T16:59:10.766Z,37.30
2019-02-06T17:01:53.037Z,30.97
2019-02-06T17:04:35.386Z,28.00
2019-02-06T17:07:16.579Z,26.77
2019-02-06T17:09:57.084Z,26.87
2019-02-06T17:12:38.943Z,26.77
2019-02-06T17:15:22.753Z,27.13
2019-02-06T17:18:04.242Z,26.90
2019-02-06T17:20:45.318Z,28.10
2019-02-06T17:23:26.198Z,27.17
2019-02-06T17:26:07.153Z,28.63
2019-02-06T17:28:48.067Z,27.73
2019-02-06T17:31:28.713Z,28.27
2019-02-06T17:36:53.601Z,31.10
2019-02-06T17:39:35.016Z,28.53
2019-02-06T17:42:16.113Z,25.87
2019-02-06T17:44:57.282Z,27.63
2019-02-06T17:47:37.999Z,26.80
2019-02-06T17:50:21.301Z,24.10
2019-02-06T17:53:02.153Z,26.73
2019-02-06T17:55:42.733Z,27.23
2019-02-06T17:58:23.715Z,26.97
2019-02-06T18:01:04.885Z,29.83
2019-02-06T18:06:36.552Z,29.97
2019-02-06T18:09:17.522Z,29.03
2019-02-06T18:11:59.289Z,29.50
2019-02-06T18:14:40.107Z,30.97
2019-02-06T18:17:21.443Z,30.77
2019-02-06T18:20:02.514Z,31.07
2019-02-06T18:22:43.155Z,31.23
2019-02-06T18:25:23.859Z,31.87
2019-02-06T18:28:04.458Z,29.90
2019-02-06T18:30:45.214Z,31.47
2019-02-06T18:33:25.823Z,31.10
2019-02-06T18:36:06.255Z,30.83
2019-02-06T18:38:48.677Z,29.50
2019-02-06T18:41:30.482Z,30.93
2019-02-06T18:44:11.619Z,31.77
2019-02-06T18:46:52.453Z,32.37
2019-02-06T18:49:33.177Z,32.30
2019-02-06T18:52:20.213Z,29.90
2019-02-06T18:54:57.098Z,29.70
2019-02-06T18:57:40.137Z,27.47
2019-02-06T19:00:22.294Z,28.67
2019-02-06T19:03:04.473Z,28.87
2019-02-06T19:05:45.294Z,27.83
2019-02-06T19:08:27.099Z,27.80
2019-02-06T19:11:07.931Z,29.57
2019-02-06T19:13:50.139Z,26.87
2019-02-06T19:16:31.866Z,27.37
2019-02-06T19:19:13.100Z,27.77
2019-02-06T19:21:54.536Z,25.93
2019-02-06T19:24:37.128Z,26.20
2019-02-06T19:27:19.010Z,26.87
2019-02-06T19:30:00.014Z,26.03
2019-02-06T19:32:44.469Z,24.80
2019-02-06T19:35:25.059Z,24.03
2019-02-06T19:38:05.999Z,25.63
2019-02-06T19:40:47.003Z,26.73
2019-02-06T19:43:28.485Z,27.10
2019-02-06T19:46:09.419Z,28.00
2019-02-06T19:48:50.082Z,28.67
2019-02-06T19:51:31.047Z,30.27
2019-02-06T19:54:11.904Z,30.60
2019-02-06T19:56:52.719Z,27.17
2019-02-06T19:59:35.485Z,28.40
2019-02-06T20:02:16.045Z,30.53
2019-02-06T20:04:58.677Z,30.37
2019-02-06T20:07:39.678Z,29.37
2019-02-06T20:10:21.027Z,29.83
2019-02-06T20:13:10.701Z,28.17
2019-02-06T20:15:45.706Z,31.27
2019-02-06T20:18:26.927Z,33.00
2019-02-06T20:21:07.526Z,31.13
2019-02-06T20:23:47.743Z,30.83
2019-02-06T20:26:31.441Z,28.57
2019-02-06T20:29:12.311Z,29.90
2019-02-06T20:31:52.913Z,29.40
2019-02-06T20:34:33.726Z,28.33
2019-02-06T20:37:14.374Z,27.27
2019-02-06T20:39:56.989Z,26.93
2019-02-06T20:42:39.252Z,26.93
2019-02-06T20:45:20.388Z,27.03
2019-02-06T20:48:01.244Z,26.53
2019-02-06T20:50:44.093Z,26.13
2019-02-06T20:53:24.694Z,24.67
2019-02-06T20:56:06.543Z,24.20
2019-02-06T20:58:49.270Z,25.10
2019-02-06T21:01:30.381Z,24.60
2019-02-06T21:04:10.952Z,23.83
2019-02-06T21:06:52.704Z,21.97
2019-02-06T21:09:33.478Z,24.40
2019-02-06T21:12:14.706Z,23.33
2019-02-06T21:14:55.787Z,23.13
2019-02-06T21:17:37.830Z,24.30
2019-02-06T21:20:19.082Z,25.17
2019-02-06T21:23:03.203Z,25.27
2019-02-06T21:25:44.070Z,25.40
2019-02-06T21:28:24.720Z,22.80
2019-02-06T21:31:06.184Z,22.30
2019-02-06T21:33:46.941Z,24.67
2019-02-06T21:36:28.426Z,23.37
2019-02-06T21:39:09.844Z,23.67
2019-02-06T21:41:50.750Z,23.00
2019-02-06T21:44:31.713Z,24.17
2019-02-06T21:47:12.284Z,24.23
2019-02-06T21:52:39.194Z,25.93
2019-02-06T21:55:19.703Z,25.23
2019-02-06T21:58:00.276Z,22.27
2019-02-06T22:00:41.160Z,21.97
2019-02-06T22:03:23.260Z,22.40
2019-02-06T22:06:06.620Z,22.00
2019-02-06T22:08:47.650Z,23.00
2019-02-06T22:11:28.752Z,22.33
2019-02-06T22:14:09.498Z,22.83
2019-02-06T22:16:51.700Z,23.87
2019-02-06T22:19:32.581Z,23.03
2019-02-06T22:22:14.422Z,22.87
2019-02-06T22:24:56.477Z,22.90
2019-02-06T22:27:38.404Z,24.37
2019-02-06T22:30:21.312Z,24.20
2019-02-06T22:33:02.096Z,23.13
2019-02-06T22:35:43.037Z,23.93
2019-02-06T22:38:24.566Z,23.77
2019-02-06T22:41:06.745Z,23.47
2019-02-06T22:43:47.872Z,23.73
2019-02-06T22:46:28.632Z,22.73
2019-02-06T22:49:09.983Z,24.03
2019-02-06T22:51:50.802Z,24.10
2019-02-06T22:54:31.342Z,24.03
2019-02-06T22:57:13.006Z,24.13
2019-02-06T22:59:54.892Z,23.23
2019-02-06T23:02:36.383Z,23.60
2019-02-06T23:05:17.110Z,24.27
2019-02-06T23:07:58.466Z,24.53
2019-02-06T23:10:39.658Z,24.70
2019-02-06T23:13:21.843Z,23.73
2019-02-06T23:16:04.304Z,23.57
2019-02-06T23:18:46.496Z,23.73
2019-02-06T23:21:28.408Z,23.93
2019-02-06T23:24:10.017Z,24.00
2019-02-06T23:26:50.991Z,23.93
2019-02-06T23:29:31.942Z,23.30
2019-02-06T23:32:12.918Z,23.87
2019-02-06T23:34:53.379Z,24.20
2019-02-06T23:37:35.561Z,24.17
2019-02-06T23:40:16.540Z,22.67
2019-02-06T23:42:58.494Z,24.63
2019-02-06T23:45:40.810Z,24.33
2019-02-06T23:48:21.304Z,23.90
2019-02-06T23:51:01.765Z,24.40
2019-02-06T23:53:42.863Z,23.70
2019-02-06T23:56:23.901Z,24.27
